sensor_id;sensor_type;location;lat;lon;timestamp;pressure;altitude;pressure_sealevel;temperature;humidity
76553;BME280;65395;53.168;18.156;2023-07-13T00:00:47;100604.62;;;16.21;83.58
76553;BME280;65395;53.168;18.156;2023-07-13T00:03:34;100601.57;;;16.19;83.97
76553;BME280;65395;53.168;18.156;2023-07-13T00:06:01;100593.85;;;16.19;84.42
76553;BME280;65395;53.168;18.156;2023-07-13T00:08:31;100589.73;;;16.20;83.99
76553;BME280;65395;53.168;18.156;2023-07-13T00:11:01;100589.33;;;16.17;83.54
76553;BME280;65395;53.168;18.156;2023-07-13T00:13:29;100590.48;;;16.11;83.49
76553;BME280;65395;53.168;18.156;2023-07-13T00:15:58;100591.89;;;16.06;83.33
76553;BME280;65395;53.168;18.156;2023-07-13T00:18:25;100593.27;;;16.04;83.52
76553;BME280;65395;53.168;18.156;2023-07-13T00:20:52;100594.70;;;16.01;83.69
76553;BME280;65395;53.168;18.156;2023-07-13T00:37:37;100605.83;;;16.27;82.82
76553;BME280;65395;53.168;18.156;2023-07-13T00:40:04;100611.09;;;16.29;82.68
76553;BME280;65395;53.168;18.156;2023-07-13T00:42:32;100614.76;;;16.22;82.83
76553;BME280;65395;53.168;18.156;2023-07-13T00:45:05;100616.89;;;16.16;83.09
76553;BME280;65395;53.168;18.156;2023-07-13T00:47:32;100620.89;;;16.12;83.20
76553;BME280;65395;53.168;18.156;2023-07-13T00:50:00;100621.91;;;16.08;83.19
76553;BME280;65395;53.168;18.156;2023-07-13T00:52:27;100622.43;;;16.04;83.20
76553;BME280;65395;53.168;18.156;2023-07-13T00:54:55;100633.65;;;16.01;83.42
76553;BME280;65395;53.168;18.156;2023-07-13T00:57:22;100637.40;;;15.96;83.42
76553;BME280;65395;53.168;18.156;2023-07-13T00:59:55;100643.34;;;15.90;83.18
76553;BME280;65395;53.168;18.156;2023-07-13T01:02:26;100648.11;;;15.85;83.38
76553;BME280;65395;53.168;18.156;2023-07-13T01:04:52;100651.77;;;15.79;83.62
76553;BME280;65395;53.168;18.156;2023-07-13T01:07:19;100658.44;;;15.75;83.74
76553;BME280;65395;53.168;18.156;2023-07-13T01:09:46;100658.12;;;15.71;83.85
76553;BME280;65395;53.168;18.156;2023-07-13T01:12:12;100647.17;;;15.71;83.89
76553;BME280;65395;53.168;18.156;2023-07-13T01:14:40;100648.88;;;15.70;83.99
76553;BME280;65395;53.168;18.156;2023-07-13T01:17:10;100647.63;;;15.69;83.85
76553;BME280;65395;53.168;18.156;2023-07-13T01:19:42;100645.14;;;15.68;83.74
76553;BME280;65395;53.168;18.156;2023-07-13T01:22:13;100640.91;;;15.65;83.79
76553;BME280;65395;53.168;18.156;2023-07-13T01:24:43;100636.83;;;15.63;83.98
76553;BME280;65395;53.168;18.156;2023-07-13T01:27:12;100627.51;;;15.63;84.15
76553;BME280;65395;53.168;18.156;2023-07-13T01:29:43;100625.15;;;15.65;84.04
76553;BME280;65395;53.168;18.156;2023-07-13T01:32:13;100622.58;;;15.65;83.98
76553;BME280;65395;53.168;18.156;2023-07-13T01:34:41;100625.57;;;15.64;83.93
76553;BME280;65395;53.168;18.156;2023-07-13T01:37:10;100628.27;;;15.63;83.96
76553;BME280;65395;53.168;18.156;2023-07-13T01:39:37;100636.17;;;15.62;83.95
76553;BME280;65395;53.168;18.156;2023-07-13T01:42:04;100637.86;;;15.60;83.88
76553;BME280;65395;53.168;18.156;2023-07-13T01:44:40;100640.69;;;15.57;83.98
76553;BME280;65395;53.168;18.156;2023-07-13T01:47:07;100641.10;;;15.54;84.19
76553;BME280;65395;53.168;18.156;2023-07-13T01:49:32;100642.55;;;15.52;84.26
76553;BME280;65395;53.168;18.156;2023-07-13T01:51:59;100646.46;;;15.55;84.64
76553;BME280;65395;53.168;18.156;2023-07-13T01:54:26;100653.58;;;15.56;84.51
76553;BME280;65395;53.168;18.156;2023-07-13T01:56:52;100657.92;;;15.57;84.58
76553;BME280;65395;53.168;18.156;2023-07-13T01:59:19;100664.52;;;15.61;84.92
76553;BME280;65395;53.168;18.156;2023-07-13T02:01:45;100662.48;;;15.66;84.90
76553;BME280;65395;53.168;18.156;2023-07-13T02:04:12;100664.36;;;15.73;84.93
76553;BME280;65395;53.168;18.156;2023-07-13T02:06:39;100661.00;;;15.80;85.02
76553;BME280;65395;53.168;18.156;2023-07-13T02:09:05;100655.05;;;15.85;84.78
76553;BME280;65395;53.168;18.156;2023-07-13T02:11:32;100655.50;;;15.89;84.79
76553;BME280;65395;53.168;18.156;2023-07-13T02:14:00;100658.27;;;15.94;84.74
76553;BME280;65395;53.168;18.156;2023-07-13T02:16:29;100657.45;;;15.98;84.72
76553;BME280;65395;53.168;18.156;2023-07-13T02:18:56;100659.93;;;15.99;84.50
76553;BME280;65395;53.168;18.156;2023-07-13T02:21:23;100655.40;;;15.98;84.45
76553;BME280;65395;53.168;18.156;2023-07-13T02:23:52;100652.52;;;15.97;84.67
76553;BME280;65395;53.168;18.156;2023-07-13T02:26:19;100647.49;;;15.98;84.70
76553;BME280;65395;53.168;18.156;2023-07-13T02:28:46;100643.92;;;15.98;84.60
76553;BME280;65395;53.168;18.156;2023-07-13T02:31:14;100636.98;;;16.00;84.60
76553;BME280;65395;53.168;18.156;2023-07-13T02:33:42;100633.96;;;16.01;84.56
76553;BME280;65395;53.168;18.156;2023-07-13T02:36:10;100634.57;;;15.99;84.48
76553;BME280;65395;53.168;18.156;2023-07-13T02:38:37;100635.81;;;15.98;84.42
76553;BME280;65395;53.168;18.156;2023-07-13T02:41:06;100629.84;;;15.99;84.52
76553;BME280;65395;53.168;18.156;2023-07-13T02:43:33;100631.34;;;16.00;84.75
76553;BME280;65395;53.168;18.156;2023-07-13T02:46:01;100634.29;;;16.04;84.80
76553;BME280;65395;53.168;18.156;2023-07-13T02:48:34;100638.86;;;16.09;84.89
76553;BME280;65395;53.168;18.156;2023-07-13T02:51:01;100646.10;;;16.15;85.01
76553;BME280;65395;53.168;18.156;2023-07-13T02:53:28;100641.94;;;16.19;85.06
76553;BME280;65395;53.168;18.156;2023-07-13T02:55:56;100638.39;;;16.20;85.33
76553;BME280;65395;53.168;18.156;2023-07-13T02:58:23;100634.69;;;16.21;85.25
76553;BME280;65395;53.168;18.156;2023-07-13T03:00:51;100634.19;;;16.23;85.10
76553;BME280;65395;53.168;18.156;2023-07-13T03:03:18;100632.27;;;16.25;85.04
76553;BME280;65395;53.168;18.156;2023-07-13T03:05:45;100631.71;;;16.28;85.07
76553;BME280;65395;53.168;18.156;2023-07-13T03:08:16;100622.60;;;16.30;85.15
76553;BME280;65395;53.168;18.156;2023-07-13T03:10:45;100629.02;;;16.33;85.07
76553;BME280;65395;53.168;18.156;2023-07-13T03:13:12;100632.63;;;16.34;84.81
76553;BME280;65395;53.168;18.156;2023-07-13T03:15:39;100629.29;;;16.30;84.73
76553;BME280;65395;53.168;18.156;2023-07-13T03:18:06;100626.16;;;16.26;84.82
76553;BME280;65395;53.168;18.156;2023-07-13T03:20:34;100626.55;;;16.24;85.04
76553;BME280;65395;53.168;18.156;2023-07-13T03:23:01;100629.91;;;16.25;85.00
76553;BME280;65395;53.168;18.156;2023-07-13T03:25:30;100626.23;;;16.26;84.91
76553;BME280;65395;53.168;18.156;2023-07-13T03:27:56;100624.85;;;16.25;84.72
76553;BME280;65395;53.168;18.156;2023-07-13T03:30:23;100634.73;;;16.24;84.78
76553;BME280;65395;53.168;18.156;2023-07-13T03:32:51;100641.48;;;16.21;84.75
76553;BME280;65395;53.168;18.156;2023-07-13T03:35:18;100640.61;;;16.21;85.03
76553;BME280;65395;53.168;18.156;2023-07-13T03:37:45;100644.63;;;16.22;85.03
76553;BME280;65395;53.168;18.156;2023-07-13T03:40:15;100643.91;;;16.23;85.01
76553;BME280;65395;53.168;18.156;2023-07-13T03:42:43;100649.34;;;16.28;85.06
76553;BME280;65395;53.168;18.156;2023-07-13T03:45:10;100652.65;;;16.37;84.83
76553;BME280;65395;53.168;18.156;2023-07-13T03:47:37;100654.70;;;16.47;85.10
76553;BME280;65395;53.168;18.156;2023-07-13T03:50:05;100659.89;;;16.55;85.08
76553;BME280;65395;53.168;18.156;2023-07-13T03:52:31;100658.77;;;16.59;85.00
76553;BME280;65395;53.168;18.156;2023-07-13T03:54:59;100665.30;;;16.61;84.99
76553;BME280;65395;53.168;18.156;2023-07-13T03:57:26;100663.98;;;16.63;85.13
76553;BME280;65395;53.168;18.156;2023-07-13T03:59:52;100670.84;;;16.67;85.23
76553;BME280;65395;53.168;18.156;2023-07-13T04:02:20;100672.77;;;16.71;85.12
76553;BME280;65395;53.168;18.156;2023-07-13T04:04:47;100674.77;;;16.76;85.15
76553;BME280;65395;53.168;18.156;2023-07-13T04:07:13;100672.47;;;16.82;85.24
76553;BME280;65395;53.168;18.156;2023-07-13T04:09:40;100675.89;;;16.89;85.26
76553;BME280;65395;53.168;18.156;2023-07-13T04:12:07;100678.57;;;16.93;85.05
76553;BME280;65395;53.168;18.156;2023-07-13T04:14:34;100681.13;;;16.99;85.04
76553;BME280;65395;53.168;18.156;2023-07-13T04:17:00;100691.49;;;17.03;85.00
76553;BME280;65395;53.168;18.156;2023-07-13T04:19:27;100692.05;;;17.08;84.93
76553;BME280;65395;53.168;18.156;2023-07-13T04:21:54;100692.63;;;17.12;85.05
76553;BME280;65395;53.168;18.156;2023-07-13T04:24:20;100687.48;;;17.14;84.79
76553;BME280;65395;53.168;18.156;2023-07-13T04:26:47;100688.16;;;17.16;84.68
76553;BME280;65395;53.168;18.156;2023-07-13T04:29:14;100686.63;;;17.18;84.64
76553;BME280;65395;53.168;18.156;2023-07-13T04:31:41;100680.71;;;17.21;84.58
76553;BME280;65395;53.168;18.156;2023-07-13T04:34:08;100672.73;;;17.26;84.57
76553;BME280;65395;53.168;18.156;2023-07-13T04:36:35;100670.84;;;17.30;84.45
76553;BME280;65395;53.168;18.156;2023-07-13T04:39:04;100679.19;;;17.32;84.34
76553;BME280;65395;53.168;18.156;2023-07-13T04:41:30;100692.64;;;17.33;84.48
76553;BME280;65395;53.168;18.156;2023-07-13T04:43:57;100702.41;;;17.34;84.63
76553;BME280;65395;53.168;18.156;2023-07-13T04:46:24;100698.80;;;17.36;84.62
76553;BME280;65395;53.168;18.156;2023-07-13T04:48:51;100693.11;;;17.38;84.48
76553;BME280;65395;53.168;18.156;2023-07-13T04:51:19;100696.41;;;17.43;83.99
76553;BME280;65395;53.168;18.156;2023-07-13T04:53:46;100707.02;;;17.53;83.87
76553;BME280;65395;53.168;18.156;2023-07-13T04:56:13;100710.84;;;17.64;83.72
76553;BME280;65395;53.168;18.156;2023-07-13T04:58:39;100724.84;;;17.77;83.59
76553;BME280;65395;53.168;18.156;2023-07-13T05:01:07;100729.40;;;17.95;83.44
76553;BME280;65395;53.168;18.156;2023-07-13T05:03:35;100731.11;;;18.15;83.12
76553;BME280;65395;53.168;18.156;2023-07-13T05:06:05;100731.86;;;18.34;82.58
76553;BME280;65395;53.168;18.156;2023-07-13T05:08:32;100735.04;;;18.52;82.18
76553;BME280;65395;53.168;18.156;2023-07-13T05:11:00;100734.91;;;18.70;82.26
76553;BME280;65395;53.168;18.156;2023-07-13T05:13:27;100736.79;;;18.90;82.25
76553;BME280;65395;53.168;18.156;2023-07-13T05:15:57;100739.30;;;19.08;81.64
76553;BME280;65395;53.168;18.156;2023-07-13T05:18:24;100739.67;;;19.19;81.07
76553;BME280;65395;53.168;18.156;2023-07-13T05:20:57;100738.45;;;19.28;80.88
76553;BME280;65395;53.168;18.156;2023-07-13T05:23:24;100738.95;;;19.37;80.93
76553;BME280;65395;53.168;18.156;2023-07-13T05:25:51;100736.39;;;19.43;80.07
76553;BME280;65395;53.168;18.156;2023-07-13T05:28:18;100742.52;;;19.47;79.44
76553;BME280;65395;53.168;18.156;2023-07-13T05:30:46;100743.52;;;19.53;79.14
76553;BME280;65395;53.168;18.156;2023-07-13T05:33:13;100746.42;;;19.64;78.52
76553;BME280;65395;53.168;18.156;2023-07-13T05:35:40;100737.85;;;19.78;78.44
76553;BME280;65395;53.168;18.156;2023-07-13T05:38:07;100743.79;;;19.93;77.91
76553;BME280;65395;53.168;18.156;2023-07-13T05:40:33;100748.55;;;20.06;78.03
76553;BME280;65395;53.168;18.156;2023-07-13T05:43:00;100754.37;;;20.18;78.01
76553;BME280;65395;53.168;18.156;2023-07-13T05:45:27;100763.61;;;20.29;77.67
76553;BME280;65395;53.168;18.156;2023-07-13T05:47:53;100765.42;;;20.38;77.29
76553;BME280;65395;53.168;18.156;2023-07-13T05:50:20;100769.50;;;20.43;77.10
76553;BME280;65395;53.168;18.156;2023-07-13T05:52:47;100763.86;;;20.44;77.09
76553;BME280;65395;53.168;18.156;2023-07-13T05:55:14;100763.09;;;20.46;76.84
76553;BME280;65395;53.168;18.156;2023-07-13T05:57:41;100758.88;;;20.50;76.06
76553;BME280;65395;53.168;18.156;2023-07-13T06:00:09;100757.85;;;20.56;75.58
76553;BME280;65395;53.168;18.156;2023-07-13T06:02:40;100761.90;;;20.62;75.25
76553;BME280;65395;53.168;18.156;2023-07-13T06:05:07;100760.61;;;20.70;74.24
76553;BME280;65395;53.168;18.156;2023-07-13T06:07:34;100761.57;;;20.75;74.01
76553;BME280;65395;53.168;18.156;2023-07-13T06:10:01;100767.95;;;20.77;73.77
76553;BME280;65395;53.168;18.156;2023-07-13T06:12:27;100761.16;;;20.74;73.94
76553;BME280;65395;53.168;18.156;2023-07-13T06:14:54;100761.98;;;20.69;74.33
76553;BME280;65395;53.168;18.156;2023-07-13T06:17:21;100760.76;;;20.69;74.79
76553;BME280;65395;53.168;18.156;2023-07-13T06:19:48;100754.27;;;20.70;74.73
76553;BME280;65395;53.168;18.156;2023-07-13T06:22:14;100755.53;;;20.69;74.59
76553;BME280;65395;53.168;18.156;2023-07-13T06:24:41;100753.30;;;20.68;74.45
76553;BME280;65395;53.168;18.156;2023-07-13T06:27:08;100747.20;;;20.65;74.14
76553;BME280;65395;53.168;18.156;2023-07-13T06:29:34;100752.45;;;20.64;74.46
76553;BME280;65395;53.168;18.156;2023-07-13T06:32:01;100753.68;;;20.64;74.19
76553;BME280;65395;53.168;18.156;2023-07-13T06:34:28;100751.77;;;20.64;73.86
76553;BME280;65395;53.168;18.156;2023-07-13T06:36:54;100756.46;;;20.62;73.83
76553;BME280;65395;53.168;18.156;2023-07-13T06:39:22;100755.73;;;20.63;73.67
76553;BME280;65395;53.168;18.156;2023-07-13T06:41:49;100755.30;;;20.65;73.74
76553;BME280;65395;53.168;18.156;2023-07-13T06:44:15;100755.67;;;20.68;73.09
76553;BME280;65395;53.168;18.156;2023-07-13T06:46:42;100762.13;;;20.73;72.90
76553;BME280;65395;53.168;18.156;2023-07-13T06:49:09;100764.54;;;20.81;72.82
76553;BME280;65395;53.168;18.156;2023-07-13T06:51:36;100763.13;;;20.90;71.94
76553;BME280;65395;53.168;18.156;2023-07-13T06:54:03;100761.63;;;20.95;71.81
76553;BME280;65395;53.168;18.156;2023-07-13T06:56:30;100766.59;;;20.98;71.47
76553;BME280;65395;53.168;18.156;2023-07-13T06:58:56;100773.08;;;21.01;71.24
76553;BME280;65395;53.168;18.156;2023-07-13T07:01:23;100783.46;;;21.09;71.32
76553;BME280;65395;53.168;18.156;2023-07-13T07:03:50;100788.55;;;21.21;70.82
76553;BME280;65395;53.168;18.156;2023-07-13T07:06:19;100788.61;;;21.36;70.32
76553;BME280;65395;53.168;18.156;2023-07-13T07:08:46;100782.55;;;21.51;69.72
76553;BME280;65395;53.168;18.156;2023-07-13T07:11:16;100779.58;;;21.69;69.46
76553;BME280;65395;53.168;18.156;2023-07-13T07:13:43;100782.00;;;21.87;69.01
76553;BME280;65395;53.168;18.156;2023-07-13T07:16:10;100783.75;;;22.04;68.34
76553;BME280;65395;53.168;18.156;2023-07-13T07:18:37;100784.89;;;22.18;67.72
76553;BME280;65395;53.168;18.156;2023-07-13T07:21:04;100791.15;;;22.30;67.83
76553;BME280;65395;53.168;18.156;2023-07-13T07:23:31;100798.54;;;22.45;67.43
76553;BME280;65395;53.168;18.156;2023-07-13T07:25:58;100799.73;;;22.61;67.14
76553;BME280;65395;53.168;18.156;2023-07-13T07:28:25;100801.55;;;22.76;66.75
76553;BME280;65395;53.168;18.156;2023-07-13T07:30:56;100796.31;;;22.86;66.20
76553;BME280;65395;53.168;18.156;2023-07-13T07:33:24;100784.94;;;22.91;65.80
76553;BME280;65395;53.168;18.156;2023-07-13T07:35:51;100783.76;;;22.94;65.74
76553;BME280;65395;53.168;18.156;2023-07-13T07:38:18;100785.52;;;23.00;65.52
76553;BME280;65395;53.168;18.156;2023-07-13T07:40:45;100783.48;;;23.03;65.27
76553;BME280;65395;53.168;18.156;2023-07-13T07:43:12;100783.23;;;23.07;65.05
76553;BME280;65395;53.168;18.156;2023-07-13T07:45:40;100786.17;;;23.10;64.62
76553;BME280;65395;53.168;18.156;2023-07-13T07:48:07;100787.44;;;23.12;64.39
76553;BME280;65395;53.168;18.156;2023-07-13T07:50:36;100786.90;;;23.12;64.35
76553;BME280;65395;53.168;18.156;2023-07-13T07:53:03;100787.86;;;23.16;64.16
76553;BME280;65395;53.168;18.156;2023-07-13T07:55:34;100784.43;;;23.17;63.83
76553;BME280;65395;53.168;18.156;2023-07-13T07:58:02;100789.77;;;23.21;63.85
76553;BME280;65395;53.168;18.156;2023-07-13T08:00:29;100792.11;;;23.25;63.33
76553;BME280;65395;53.168;18.156;2023-07-13T08:02:58;100794.57;;;23.30;63.29
76553;BME280;65395;53.168;18.156;2023-07-13T08:05:25;100793.08;;;23.37;63.07
76553;BME280;65395;53.168;18.156;2023-07-13T08:07:52;100801.24;;;23.46;62.34
76553;BME280;65395;53.168;18.156;2023-07-13T08:10:19;100808.05;;;23.49;60.36
76553;BME280;65395;53.168;18.156;2023-07-13T08:12:46;100803.53;;;23.51;60.60
76553;BME280;65395;53.168;18.156;2023-07-13T08:15:16;100801.14;;;23.58;60.81
76553;BME280;65395;53.168;18.156;2023-07-13T08:17:43;100800.52;;;23.65;60.18
76553;BME280;65395;53.168;18.156;2023-07-13T08:20:10;100797.98;;;23.72;60.39
76553;BME280;65395;53.168;18.156;2023-07-13T08:22:37;100796.79;;;23.83;60.65
76553;BME280;65395;53.168;18.156;2023-07-13T08:25:04;100794.41;;;23.93;60.69
76553;BME280;65395;53.168;18.156;2023-07-13T08:27:31;100798.71;;;24.00;60.07
76553;BME280;65395;53.168;18.156;2023-07-13T08:29:58;100798.25;;;24.05;58.30
76553;BME280;65395;53.168;18.156;2023-07-13T08:32:25;100795.48;;;24.15;57.49
76553;BME280;65395;53.168;18.156;2023-07-13T08:34:51;100794.16;;;24.21;56.31
76553;BME280;65395;53.168;18.156;2023-07-13T08:37:19;100791.55;;;24.24;56.85
76553;BME280;65395;53.168;18.156;2023-07-13T08:39:46;100790.39;;;24.33;55.75
76553;BME280;65395;53.168;18.156;2023-07-13T08:42:36;100787.05;;;24.40;55.19
76553;BME280;65395;53.168;18.156;2023-07-13T08:45:20;100781.02;;;24.44;52.98
76553;BME280;65395;53.168;18.156;2023-07-13T08:50:32;100778.98;;;24.29;51.68
76553;BME280;65395;53.168;18.156;2023-07-13T08:53:03;100774.80;;;24.26;52.64
76553;BME280;65395;53.168;18.156;2023-07-13T08:55:33;100769.33;;;24.36;53.36
76553;BME280;65395;53.168;18.156;2023-07-13T08:58:14;100774.34;;;24.49;53.54
76553;BME280;65395;53.168;18.156;2023-07-13T09:03:49;100774.92;;;24.56;53.16
76553;BME280;65395;53.168;18.156;2023-07-13T09:06:21;100776.70;;;24.56;53.35
76553;BME280;65395;53.168;18.156;2023-07-13T09:09:02;100781.73;;;24.49;52.80
76553;BME280;65395;53.168;18.156;2023-07-13T09:11:47;100786.03;;;24.36;53.24
76553;BME280;65395;53.168;18.156;2023-07-13T09:17:05;100796.35;;;23.93;57.68
76553;BME280;65395;53.168;18.156;2023-07-13T09:19:34;100788.21;;;23.70;57.54
76553;BME280;65395;53.168;18.156;2023-07-13T09:22:03;100788.50;;;23.55;56.76
76553;BME280;65395;53.168;18.156;2023-07-13T09:24:46;100787.09;;;23.46;57.42
76553;BME280;65395;53.168;18.156;2023-07-13T09:27:21;100787.73;;;23.40;57.61
76553;BME280;65395;53.168;18.156;2023-07-13T09:29:54;100785.47;;;23.32;57.52
76553;BME280;65395;53.168;18.156;2023-07-13T09:32:24;100787.04;;;23.29;57.83
76553;BME280;65395;53.168;18.156;2023-07-13T09:34:53;100787.34;;;23.29;57.74
76553;BME280;65395;53.168;18.156;2023-07-13T09:37:23;100787.78;;;23.28;56.88
76553;BME280;65395;53.168;18.156;2023-07-13T09:39:52;100790.04;;;23.30;56.03
76553;BME280;65395;53.168;18.156;2023-07-13T09:42:22;100786.70;;;23.38;55.54
76553;BME280;65395;53.168;18.156;2023-07-13T09:44:55;100782.59;;;23.56;55.13
76553;BME280;65395;53.168;18.156;2023-07-13T09:47:26;100780.65;;;23.85;55.05
76553;BME280;65395;53.168;18.156;2023-07-13T09:49:56;100781.80;;;24.16;54.95
76553;BME280;65395;53.168;18.156;2023-07-13T09:52:25;100778.50;;;24.49;52.42
76553;BME280;65395;53.168;18.156;2023-07-13T09:54:54;100776.34;;;24.71;52.30
76553;BME280;65395;53.168;18.156;2023-07-13T09:57:27;100772.83;;;24.90;50.35
76553;BME280;65395;53.168;18.156;2023-07-13T09:59:55;100769.65;;;25.04;49.25
76553;BME280;65395;53.168;18.156;2023-07-13T10:02:27;100766.02;;;25.18;48.51
76553;BME280;65395;53.168;18.156;2023-07-13T10:05:00;100766.67;;;25.30;48.03
76553;BME280;65395;53.168;18.156;2023-07-13T10:07:27;100770.25;;;25.39;47.46
76553;BME280;65395;53.168;18.156;2023-07-13T10:09:55;100769.53;;;25.51;47.78
76553;BME280;65395;53.168;18.156;2023-07-13T10:12:23;100769.02;;;25.63;47.42
76553;BME280;65395;53.168;18.156;2023-07-13T10:14:54;100768.71;;;25.69;47.39
76553;BME280;65395;53.168;18.156;2023-07-13T10:17:28;100761.45;;;25.66;46.84
76553;BME280;65395;53.168;18.156;2023-07-13T10:20:01;100766.46;;;25.58;46.50
76553;BME280;65395;53.168;18.156;2023-07-13T10:22:39;100770.99;;;25.50;46.97
76553;BME280;65395;53.168;18.156;2023-07-13T10:25:18;100768.52;;;25.47;46.49
76553;BME280;65395;53.168;18.156;2023-07-13T10:27:47;100771.29;;;25.44;46.75
76553;BME280;65395;53.168;18.156;2023-07-13T10:30:27;100773.45;;;25.50;46.46
76553;BME280;65395;53.168;18.156;2023-07-13T10:32:59;100772.95;;;25.62;47.65
76553;BME280;65395;53.168;18.156;2023-07-13T10:35:29;100772.49;;;25.67;48.25
76553;BME280;65395;53.168;18.156;2023-07-13T10:38:06;100775.73;;;25.65;48.70
76553;BME280;65395;53.168;18.156;2023-07-13T10:40:37;100768.79;;;25.62;48.74
76553;BME280;65395;53.168;18.156;2023-07-13T10:43:12;100771.94;;;25.60;48.89
76553;BME280;65395;53.168;18.156;2023-07-13T10:45:41;100772.18;;;25.61;48.93
76553;BME280;65395;53.168;18.156;2023-07-13T10:48:12;100771.41;;;25.65;49.02
76553;BME280;65395;53.168;18.156;2023-07-13T10:50:43;100765.55;;;25.67;48.99
76553;BME280;65395;53.168;18.156;2023-07-13T10:53:32;100770.02;;;25.73;48.80
76553;BME280;65395;53.168;18.156;2023-07-13T10:56:03;100767.51;;;25.88;48.83
76553;BME280;65395;53.168;18.156;2023-07-13T10:58:37;100769.84;;;26.06;48.67
76553;BME280;65395;53.168;18.156;2023-07-13T11:01:10;100770.84;;;26.27;48.15
76553;BME280;65395;53.168;18.156;2023-07-13T11:03:50;100769.98;;;26.42;47.74
76553;BME280;65395;53.168;18.156;2023-07-13T11:06:40;100765.31;;;26.54;47.56
76553;BME280;65395;53.168;18.156;2023-07-13T11:09:32;100767.63;;;26.60;47.31
76553;BME280;65395;53.168;18.156;2023-07-13T11:12:01;100763.92;;;26.59;46.99
76553;BME280;65395;53.168;18.156;2023-07-13T11:14:35;100764.01;;;26.51;47.18
76553;BME280;65395;53.168;18.156;2023-07-13T11:19:52;100779.89;;;26.20;47.36
76553;BME280;65395;53.168;18.156;2023-07-13T11:22:25;100778.48;;;26.08;47.65
76553;BME280;65395;53.168;18.156;2023-07-13T11:28:11;100775.22;;;25.98;48.40
76553;BME280;65395;53.168;18.156;2023-07-13T11:30:46;100776.54;;;25.97;49.05
76553;BME280;65395;53.168;18.156;2023-07-13T11:36:04;100776.38;;;25.89;49.17
76553;BME280;65395;53.168;18.156;2023-07-13T11:38:40;100779.30;;;25.83;49.70
76553;BME280;65395;53.168;18.156;2023-07-13T11:41:21;100777.53;;;25.80;49.49
76553;BME280;65395;53.168;18.156;2023-07-13T11:43:50;100778.77;;;25.79;49.74
76553;BME280;65395;53.168;18.156;2023-07-13T11:46:22;100778.92;;;25.90;49.81
76553;BME280;65395;53.168;18.156;2023-07-13T11:48:50;100781.04;;;26.07;49.91
76553;BME280;65395;53.168;18.156;2023-07-13T11:51:23;100788.23;;;26.12;50.18
76553;BME280;65395;53.168;18.156;2023-07-13T11:53:53;100794.94;;;26.11;50.02
76553;BME280;65395;53.168;18.156;2023-07-13T11:56:20;100792.06;;;26.02;49.60
76553;BME280;65395;53.168;18.156;2023-07-13T11:58:51;100790.42;;;25.90;49.60
76553;BME280;65395;53.168;18.156;2023-07-13T12:01:22;100787.56;;;25.79;49.97
76553;BME280;65395;53.168;18.156;2023-07-13T12:03:51;100786.86;;;25.76;50.26
76553;BME280;65395;53.168;18.156;2023-07-13T12:06:27;100781.08;;;25.78;50.37
76553;BME280;65395;53.168;18.156;2023-07-13T12:08:57;100780.77;;;25.86;50.49
76553;BME280;65395;53.168;18.156;2023-07-13T12:11:25;100778.70;;;25.93;50.33
76553;BME280;65395;53.168;18.156;2023-07-13T12:13:52;100773.83;;;26.00;50.19
76553;BME280;65395;53.168;18.156;2023-07-13T12:16:28;100773.02;;;26.14;49.87
76553;BME280;65395;53.168;18.156;2023-07-13T12:18:57;100770.15;;;26.21;49.90
76553;BME280;65395;53.168;18.156;2023-07-13T12:21:30;100776.02;;;26.19;50.08
76553;BME280;65395;53.168;18.156;2023-07-13T12:23:58;100773.55;;;26.19;50.06
76553;BME280;65395;53.168;18.156;2023-07-13T12:26:25;100769.92;;;26.22;49.98
76553;BME280;65395;53.168;18.156;2023-07-13T12:28:53;100776.80;;;26.26;49.90
76553;BME280;65395;53.168;18.156;2023-07-13T12:31:31;100776.02;;;26.26;49.94
76553;BME280;65395;53.168;18.156;2023-07-13T12:34:03;100768.07;;;26.28;49.55
76553;BME280;65395;53.168;18.156;2023-07-13T12:36:35;100759.56;;;26.30;49.45
76553;BME280;65395;53.168;18.156;2023-07-13T12:39:12;100759.31;;;26.45;49.05
76553;BME280;65395;53.168;18.156;2023-07-13T12:41:40;100757.10;;;26.69;48.13
76553;BME280;65395;53.168;18.156;2023-07-13T12:44:11;100755.72;;;26.95;47.41
76553;BME280;65395;53.168;18.156;2023-07-13T12:46:39;100751.71;;;27.40;47.54
76553;BME280;65395;53.168;18.156;2023-07-13T12:49:07;100743.48;;;27.94;47.19
76553;BME280;65395;53.168;18.156;2023-07-13T12:51:34;100739.17;;;28.41;46.25
76553;BME280;65395;53.168;18.156;2023-07-13T12:54:15;100741.45;;;28.89;44.70
76553;BME280;65395;53.168;18.156;2023-07-13T12:56:42;100736.11;;;29.36;43.59
76553;BME280;65395;53.168;18.156;2023-07-13T12:59:18;100735.92;;;29.74;42.61
76553;BME280;65395;53.168;18.156;2023-07-13T13:01:46;100742.80;;;30.14;42.46
76553;BME280;65395;53.168;18.156;2023-07-13T13:04:13;100738.20;;;30.43;38.06
76553;BME280;65395;53.168;18.156;2023-07-13T13:06:40;100740.75;;;30.48;37.48
76553;BME280;65395;53.168;18.156;2023-07-13T13:09:12;100755.18;;;30.65;36.70
76553;BME280;65395;53.168;18.156;2023-07-13T13:11:40;100761.52;;;30.45;34.23
76553;BME280;65395;53.168;18.156;2023-07-13T13:14:08;100756.59;;;29.84;34.33
76553;BME280;65395;53.168;18.156;2023-07-13T13:16:45;100753.80;;;29.24;34.84
76553;BME280;65395;53.168;18.156;2023-07-13T13:19:17;100750.92;;;28.81;34.99
76553;BME280;65395;53.168;18.156;2023-07-13T13:21:45;100748.41;;;28.70;36.23